Time;durP1;ratioP1;P1;durP2;ratioP2;P2;SDS_P1;SDS_P2;PMS_P1;PMS_P2;Temp;Humidity;BMP_temperature;BMP_pressure;BME280_temperature;BME280_humidity;BME280_pressure;Samples;Min_cycle;Max_cycle;Signal;HPM_P1;HPM_P2
2021/12/04 00:00:07;;;;;;;0.00;0.00;;;;;;;;;;5026801;28;20033;-69
2021/12/04 00:02:33;;;;;;;0.00;0.00;;;;;;;;;;5026146;28;20025;-66
2021/12/04 00:05:01;;;;;;;1.15;1.15;;;;;;;;;;5026828;28;20022;-67
2021/12/04 00:07:29;;;;;;;3.03;2.92;;;;;;;;;;5026129;28;20107;-68
2021/12/04 00:09:59;;;;;;;0.00;0.00;;;;;;;;;;5025763;28;20032;-70
2021/12/04 00:12:25;;;;;;;0.00;0.00;;;;;;;;;;5028736;28;20474;-69
2021/12/04 00:14:52;;;;;;;0.30;0.30;;;;;;;;;;5030092;28;20038;-69
2021/12/04 00:17:18;;;;;;;0.30;0.30;;;;;;;;;;5032203;28;20504;-69
2021/12/04 00:19:44;;;;;;;0.00;0.00;;;;;;;;;;5035204;28;20084;-70
2021/12/04 00:22:10;;;;;;;0.00;0.00;;;;;;;;;;5029442;28;20029;-70
2021/12/04 00:24:36;;;;;;;0.35;0.35;;;;;;;;;;5029763;28;20115;-70
2021/12/04 00:27:03;;;;;;;0.00;0.00;;;;;;;;;;5029402;28;20104;-70
2021/12/04 00:29:29;;;;;;;0.00;0.00;;;;;;;;;;5029715;28;20104;-70
2021/12/04 00:32:02;;;;;;;0.00;0.00;;;;;;;;;;5028972;28;20037;-70
2021/12/04 00:34:30;;;;;;;0.00;0.00;;;;;;;;;;5029835;28;20026;-70
2021/12/04 00:50:21;;;;;;;0.00;0.00;;;;;;;;;;5031669;28;20133;-70
2021/12/04 00:52:47;;;;;;;0.00;0.00;;;;;;;;;;5028850;28;20033;-70
2021/12/04 00:55:13;;;;;;;0.00;0.00;;;;;;;;;;5045849;28;20113;-71
2021/12/04 00:57:39;;;;;;;0.00;0.00;;;;;;;;;;5028328;28;20457;-71
2021/12/04 01:00:06;;;;;;;0.00;0.00;;;;;;;;;;5029485;28;20021;-70
2021/12/04 01:02:33;;;;;;;0.00;0.00;;;;;;;;;;5028932;28;20029;-70
2021/12/04 01:04:59;;;;;;;0.00;0.00;;;;;;;;;;5030122;28;20482;-70
2021/12/04 01:07:25;;;;;;;0.00;0.00;;;;;;;;;;5028448;28;20033;-71
2021/12/04 01:09:51;;;;;;;0.00;0.00;;;;;;;;;;5028511;28;20037;-71
2021/12/04 01:12:17;;;;;;;0.00;0.00;;;;;;;;;;5028554;28;20025;-71
2021/12/04 01:14:44;;;;;;;0.00;0.00;;;;;;;;;;5028384;28;20143;-71
2021/12/04 01:17:10;;;;;;;0.00;0.00;;;;;;;;;;5043530;28;20052;-72
2021/12/04 01:19:39;;;;;;;0.00;0.00;;;;;;;;;;5029100;28;20029;-71
2021/12/04 01:22:06;;;;;;;0.00;0.00;;;;;;;;;;5029760;28;20049;-72
2021/12/04 01:24:32;;;;;;;0.00;0.00;;;;;;;;;;5043225;28;20557;-71
2021/12/04 01:26:58;;;;;;;0.00;0.00;;;;;;;;;;5029158;28;20029;-71
2021/12/04 01:29:24;;;;;;;0.00;0.00;;;;;;;;;;5027162;28;20409;-72
2021/12/04 01:31:50;;;;;;;0.00;0.00;;;;;;;;;;5028028;28;20116;-72
2021/12/04 01:34:16;;;;;;;0.00;0.00;;;;;;;;;;5028941;28;20509;-71
2021/12/04 01:36:42;;;;;;;0.00;0.00;;;;;;;;;;5028829;28;20033;-71
2021/12/04 01:39:08;;;;;;;0.00;0.00;;;;;;;;;;5042508;28;20037;-71
2021/12/04 01:41:35;;;;;;;0.00;0.00;;;;;;;;;;5028548;28;20037;-70
2021/12/04 01:44:02;;;;;;;0.00;0.00;;;;;;;;;;5012023;28;20029;-71
2021/12/04 01:46:29;;;;;;;0.00;0.00;;;;;;;;;;5028269;28;20394;-70
2021/12/04 01:48:55;;;;;;;0.45;0.45;;;;;;;;;;5028806;28;20478;-70
2021/12/04 01:51:21;;;;;;;0.00;0.00;;;;;;;;;;5028412;28;20044;-71
2021/12/04 01:53:47;;;;;;;0.00;0.00;;;;;;;;;;5028713;28;20533;-71
2021/12/04 01:56:14;;;;;;;0.10;0.10;;;;;;;;;;5028386;28;20034;-71
2021/12/04 01:58:42;;;;;;;0.08;0.08;;;;;;;;;;5043819;28;20053;-71
2021/12/04 02:01:08;;;;;;;0.00;0.00;;;;;;;;;;5028417;28;20523;-71
2021/12/04 02:03:34;;;;;;;0.00;0.00;;;;;;;;;;5027641;28;20036;-71
2021/12/04 02:06:00;;;;;;;0.00;0.00;;;;;;;;;;5027816;28;20057;-71
2021/12/04 02:08:26;;;;;;;0.00;0.00;;;;;;;;;;5025048;28;20029;-71
2021/12/04 02:10:58;;;;;;;0.00;0.00;;;;;;;;;;5027859;28;20033;-71
2021/12/04 02:13:24;;;;;;;0.00;0.00;;;;;;;;;;5027644;28;20390;-72
2021/12/04 02:15:51;;;;;;;0.00;0.00;;;;;;;;;;5027893;28;20018;-71
2021/12/04 02:18:18;;;;;;;0.00;0.00;;;;;;;;;;5027383;28;20116;-72
2021/12/04 02:20:45;;;;;;;0.00;0.00;;;;;;;;;;5027215;28;20044;-73
2021/12/04 02:23:11;;;;;;;0.00;0.00;;;;;;;;;;5027288;28;20033;-71
2021/12/04 02:25:38;;;;;;;0.00;0.00;;;;;;;;;;5028078;28;20030;-71
2021/12/04 02:28:05;;;;;;;0.00;0.00;;;;;;;;;;5026514;28;20063;-71
2021/12/04 02:30:33;;;;;;;0.00;0.00;;;;;;;;;;5027891;28;20037;-71
2021/12/04 02:32:59;;;;;;;0.00;0.00;;;;;;;;;;5026826;28;20032;-71
2021/12/04 02:35:26;;;;;;;0.00;0.00;;;;;;;;;;5025039;28;20028;-71
2021/12/04 02:37:52;;;;;;;0.00;0.00;;;;;;;;;;5026250;28;20482;-72
2021/12/04 02:40:22;;;;;;;0.00;0.00;;;;;;;;;;5027346;28;20402;-72
2021/12/04 02:42:48;;;;;;;0.00;0.00;;;;;;;;;;5027353;28;20489;-72
2021/12/04 02:45:14;;;;;;;0.00;0.00;;;;;;;;;;5027005;28;20128;-69
2021/12/04 02:47:41;;;;;;;0.00;0.00;;;;;;;;;;5027994;28;20027;-68
2021/12/04 02:50:08;;;;;;;0.00;0.00;;;;;;;;;;5027057;28;20486;-68
2021/12/04 02:52:35;;;;;;;0.00;0.00;;;;;;;;;;5027547;28;20371;-68
2021/12/04 02:55:01;;;;;;;0.00;0.00;;;;;;;;;;5028525;28;20047;-66
2021/12/04 02:57:28;;;;;;;0.00;0.00;;;;;;;;;;5017365;28;20037;-67
2021/12/04 02:59:55;;;;;;;0.00;0.00;;;;;;;;;;5039815;28;20478;-67
2021/12/04 03:02:23;;;;;;;0.00;0.00;;;;;;;;;;5034620;28;20031;-67
2021/12/04 03:04:56;;;;;;;0.00;0.00;;;;;;;;;;5027954;28;20038;-66
2021/12/04 03:07:22;;;;;;;0.00;0.00;;;;;;;;;;5033046;28;20041;-66
2021/12/04 03:09:49;;;;;;;0.00;0.00;;;;;;;;;;5033410;28;20366;-66
2021/12/04 03:12:16;;;;;;;0.00;0.00;;;;;;;;;;5035046;28;20038;-66
2021/12/04 03:14:42;;;;;;;0.00;0.00;;;;;;;;;;5033476;28;20033;-66
2021/12/04 03:17:08;;;;;;;0.00;0.00;;;;;;;;;;5038191;28;20029;-66
2021/12/04 03:19:37;;;;;;;0.00;0.00;;;;;;;;;;5048455;28;20508;-67
2021/12/04 03:22:03;;;;;;;0.00;0.00;;;;;;;;;;5043525;28;20038;-66
2021/12/04 03:24:30;;;;;;;0.00;0.00;;;;;;;;;;5030413;28;20034;-66
2021/12/04 03:26:56;;;;;;;0.00;0.00;;;;;;;;;;5030154;28;20465;-66
2021/12/04 03:29:27;;;;;;;0.00;0.00;;;;;;;;;;5032138;28;20068;-66
2021/12/04 03:42:30;;;;;;;0.00;0.00;;;;;;;;;;5027799;28;20120;-68
2021/12/04 03:44:56;;;;;;;0.00;0.00;;;;;;;;;;5032969;28;20101;-67
2021/12/04 03:47:23;;;;;;;0.00;0.00;;;;;;;;;;5034484;28;20053;-67
2021/12/04 03:49:49;;;;;;;0.00;0.00;;;;;;;;;;5037627;28;20072;-68
2021/12/04 03:52:15;;;;;;;0.00;0.00;;;;;;;;;;5034528;28;20029;-68
2021/12/04 03:54:41;;;;;;;0.00;0.00;;;;;;;;;;5030875;28;20042;-68
2021/12/04 03:57:08;;;;;;;0.00;0.00;;;;;;;;;;5034055;28;20021;-67
2021/12/04 03:59:35;;;;;;;0.00;0.00;;;;;;;;;;5030822;28;20029;-68
2021/12/04 04:02:01;;;;;;;0.00;0.00;;;;;;;;;;5011956;28;20035;-68
2021/12/04 04:04:27;;;;;;;0.00;0.00;;;;;;;;;;5029270;28;20470;-68
2021/12/04 04:06:53;;;;;;;0.00;0.00;;;;;;;;;;5033913;28;20552;-67
2021/12/04 04:09:20;;;;;;;0.00;0.00;;;;;;;;;;5050199;28;20035;-68
2021/12/04 04:11:47;;;;;;;0.00;0.00;;;;;;;;;;5036499;28;20029;-68
2021/12/04 04:14:14;;;;;;;0.00;0.00;;;;;;;;;;5036467;28;20065;-68
2021/12/04 04:16:41;;;;;;;0.00;0.00;;;;;;;;;;5035473;28;20029;-68
2021/12/04 04:19:07;;;;;;;0.00;0.00;;;;;;;;;;5034268;28;20026;-68
2021/12/04 04:21:39;;;;;;;0.00;0.00;;;;;;;;;;5033904;28;20033;-68
2021/12/04 04:24:06;;;;;;;0.00;0.00;;;;;;;;;;5030054;28;20108;-67
2021/12/04 04:26:32;;;;;;;0.00;0.00;;;;;;;;;;5036120;28;20029;-68
2021/12/04 04:28:58;;;;;;;0.00;0.00;;;;;;;;;;5034361;28;20021;-68
2021/12/04 04:31:24;;;;;;;0.00;0.00;;;;;;;;;;5032182;28;20032;-67
2021/12/04 04:33:50;;;;;;;0.00;0.00;;;;;;;;;;5036556;28;20037;-68
2021/12/04 04:39:09;;;;;;;0.00;0.00;;;;;;;;;;5035790;28;20033;-67
2021/12/04 05:00:56;;;;;;;0.00;0.00;;;;;;;;;;5027851;28;20561;-67
2021/12/04 05:11:42;;;;;;;0.00;0.00;;;;;;;;;;5029481;28;20043;-67
2021/12/04 05:14:09;;;;;;;0.00;0.00;;;;;;;;;;5028145;28;20022;-67
2021/12/04 05:16:45;;;;;;;0.00;0.00;;;;;;;;;;5029266;28;20034;-68
2021/12/04 05:21:56;;;;;;;0.00;0.00;;;;;;;;;;5026717;28;20028;-67
2021/12/04 05:24:23;;;;;;;0.00;0.00;;;;;;;;;;5030002;28;20470;-67
2021/12/04 05:26:49;;;;;;;0.00;0.00;;;;;;;;;;5027727;28;20036;-67
2021/12/04 05:29:15;;;;;;;0.00;0.00;;;;;;;;;;5028962;28;20482;-67
2021/12/04 05:31:41;;;;;;;0.00;0.00;;;;;;;;;;5027465;28;20437;-67
2021/12/04 05:34:07;;;;;;;0.00;0.00;;;;;;;;;;5029605;28;20467;-67
2021/12/04 05:36:33;;;;;;;0.00;0.00;;;;;;;;;;5027592;28;20037;-67
2021/12/04 05:38:59;;;;;;;0.00;0.00;;;;;;;;;;5028847;28;20124;-67
2021/12/04 05:41:25;;;;;;;0.00;0.00;;;;;;;;;;5012020;28;20080;-67
2021/12/04 05:43:51;;;;;;;0.00;0.00;;;;;;;;;;5029658;28;20028;-67
2021/12/04 05:46:20;;;;;;;0.00;0.00;;;;;;;;;;5028421;28;20116;-67
2021/12/04 05:48:52;;;;;;;0.00;0.00;;;;;;;;;;5029029;28;20421;-67
2021/12/04 05:54:03;;;;;;;0.00;0.00;;;;;;;;;;5028718;28;20025;-67
2021/12/04 05:56:30;;;;;;;0.00;0.00;;;;;;;;;;5027152;28;20025;-67
2021/12/04 05:58:57;;;;;;;0.00;0.00;;;;;;;;;;5027285;28;20025;-67
2021/12/04 06:01:26;;;;;;;0.00;0.00;;;;;;;;;;5028193;28;20021;-67
2021/12/04 06:03:52;;;;;;;0.00;0.00;;;;;;;;;;5028469;28;20382;-67
2021/12/04 06:06:19;;;;;;;0.00;0.00;;;;;;;;;;5029699;28;20343;-67
2021/12/04 06:08:48;;;;;;;0.00;0.00;;;;;;;;;;5028263;28;20018;-67
2021/12/04 06:11:14;;;;;;;0.00;0.00;;;;;;;;;;5026449;28;20029;-67
2021/12/04 06:13:40;;;;;;;0.00;0.00;;;;;;;;;;5029418;28;20057;-67
2021/12/04 06:16:07;;;;;;;0.00;0.00;;;;;;;;;;5028721;28;20026;-66
2021/12/04 06:18:33;;;;;;;0.00;0.00;;;;;;;;;;5028091;28;20028;-67
2021/12/04 06:23:44;;;;;;;0.00;0.00;;;;;;;;;;5027524;28;20119;-67
2021/12/04 06:26:10;;;;;;;0.00;0.00;;;;;;;;;;5028923;28;20025;-66
2021/12/04 06:28:36;;;;;;;0.00;0.00;;;;;;;;;;5026720;28;20040;-67
2021/12/04 06:31:08;;;;;;;0.00;0.00;;;;;;;;;;5027369;28;20021;-66
2021/12/04 06:33:34;;;;;;;0.00;0.00;;;;;;;;;;5027677;28;20057;-66
2021/12/04 06:36:00;;;;;;;0.00;0.00;;;;;;;;;;5028214;28;20033;-66
2021/12/04 06:38:26;;;;;;;0.00;0.00;;;;;;;;;;5027331;28;20496;-66
2021/12/04 06:40:52;;;;;;;0.00;0.00;;;;;;;;;;5025921;28;20050;-67
2021/12/04 06:43:19;;;;;;;0.00;0.00;;;;;;;;;;5027643;28;20025;-67
2021/12/04 06:45:57;;;;;;;0.00;0.00;;;;;;;;;;5029431;28;20029;-66
2021/12/04 06:48:26;;;;;;;0.00;0.00;;;;;;;;;;5026352;28;20021;-66
2021/12/04 06:50:57;;;;;;;0.00;0.00;;;;;;;;;;5027452;28;20112;-65
2021/12/04 06:55:57;;;;;;;0.00;0.00;;;;;;;;;;5027291;28;20134;-66
2021/12/04 06:58:24;;;;;;;0.00;0.00;;;;;;;;;;5043147;28;20048;-67
2021/12/04 07:00:50;;;;;;;0.00;0.00;;;;;;;;;;5025243;28;20037;-66
2021/12/04 07:03:17;;;;;;;0.00;0.00;;;;;;;;;;5011168;28;20031;-67
2021/12/04 07:05:43;;;;;;;0.00;0.00;;;;;;;;;;5042135;28;20466;-67
2021/12/04 07:08:10;;;;;;;0.00;0.00;;;;;;;;;;5028959;28;20207;-67
2021/12/04 07:10:36;;;;;;;0.00;0.00;;;;;;;;;;5027623;28;20469;-67
2021/12/04 07:13:03;;;;;;;0.00;0.00;;;;;;;;;;5028612;28;20441;-67
2021/12/04 07:15:31;;;;;;;0.00;0.00;;;;;;;;;;5042006;28;20045;-67
2021/12/04 07:17:58;;;;;;;0.00;0.00;;;;;;;;;;5027318;28;20029;-67
2021/12/04 07:20:24;;;;;;;0.00;0.00;;;;;;;;;;5025888;28;20084;-67
2021/12/04 07:22:50;;;;;;;0.00;0.00;;;;;;;;;;5027505;28;20021;-67
2021/12/04 07:25:17;;;;;;;0.00;0.00;;;;;;;;;;5025465;28;20049;-67
2021/12/04 07:27:43;;;;;;;0.00;0.00;;;;;;;;;;5025619;28;20387;-68
2021/12/04 07:30:09;;;;;;;0.00;0.00;;;;;;;;;;5026054;28;20460;-68
2021/12/04 07:32:37;;;;;;;0.00;0.00;;;;;;;;;;5027236;28;20496;-68
2021/12/04 07:35:04;;;;;;;0.00;0.00;;;;;;;;;;5026051;28;20017;-68
2021/12/04 07:37:30;;;;;;;0.00;0.00;;;;;;;;;;5024987;28;20367;-68
2021/12/04 07:39:56;;;;;;;0.00;0.00;;;;;;;;;;5026340;28;20120;-68
2021/12/04 07:42:22;;;;;;;0.00;0.00;;;;;;;;;;5024841;28;20029;-68
2021/12/04 07:44:48;;;;;;;0.00;0.00;;;;;;;;;;5027500;28;20128;-68
2021/12/04 07:47:14;;;;;;;0.00;0.00;;;;;;;;;;5024994;28;20111;-68
2021/12/04 07:49:41;;;;;;;0.00;0.00;;;;;;;;;;5027320;28;20029;-68
2021/12/04 07:52:07;;;;;;;0.00;0.00;;;;;;;;;;5024791;28;20033;-67
2021/12/04 07:54:33;;;;;;;0.00;0.00;;;;;;;;;;5027018;28;20393;-67
2021/12/04 07:56:59;;;;;;;0.00;0.00;;;;;;;;;;5025918;28;20038;-67
2021/12/04 07:59:29;;;;;;;0.00;0.00;;;;;;;;;;5026772;28;20037;-67
2021/12/04 08:01:54;;;;;;;;;;;;;;;;;;5024172;28;20037;-67
2021/12/04 08:04:20;;;;;;;0.00;0.00;;;;;;;;;;5026515;28;20365;-67
2021/12/04 08:06:46;;;;;;;0.00;0.00;;;;;;;;;;5024212;28;20033;-68
2021/12/04 08:09:12;;;;;;;0.00;0.00;;;;;;;;;;5025761;28;20025;-67
2021/12/04 08:11:39;;;;;;;0.00;0.00;;;;;;;;;;5026907;28;20037;-67
2021/12/04 08:14:05;;;;;;;0.00;0.00;;;;;;;;;;5025769;28;20029;-69
2021/12/04 08:16:34;;;;;;;0.00;0.00;;;;;;;;;;5025925;28;20033;-67
2021/12/04 08:19:00;;;;;;;1.75;1.75;;;;;;;;;;5024162;28;20505;-67
2021/12/04 08:21:26;;;;;;;0.00;0.00;;;;;;;;;;5027987;28;20119;-68
2021/12/04 08:23:53;;;;;;;0.00;0.00;;;;;;;;;;5040106;28;20018;-67
2021/12/04 08:26:19;;;;;;;0.00;0.00;;;;;;;;;;5027281;28;20032;-67
2021/12/04 08:28:45;;;;;;;0.00;0.00;;;;;;;;;;5024682;28;20463;-67
2021/12/04 08:31:11;;;;;;;0.00;0.00;;;;;;;;;;5026249;28;20018;-66
2021/12/04 08:33:37;;;;;;;0.00;0.00;;;;;;;;;;5027797;28;20108;-67
2021/12/04 08:36:04;;;;;;;0.00;0.00;;;;;;;;;;5024792;28;20101;-66
2021/12/04 08:38:32;;;;;;;0.00;0.00;;;;;;;;;;5028440;28;20482;-67
2021/12/04 08:40:58;;;;;;;0.00;0.00;;;;;;;;;;5030232;28;20399;-67
2021/12/04 08:43:24;;;;;;;0.00;0.00;;;;;;;;;;5029009;28;21105;-66
2021/12/04 08:45:50;;;;;;;0.00;0.00;;;;;;;;;;5030281;28;20076;-66
2021/12/04 08:48:16;;;;;;;0.00;0.00;;;;;;;;;;5028573;28;20029;-66
2021/12/04 08:50:42;;;;;;;0.00;0.00;;;;;;;;;;5027785;28;20029;-66
2021/12/04 08:53:09;;;;;;;0.00;0.00;;;;;;;;;;5027854;28;20036;-67
2021/12/04 08:55:36;;;;;;;0.00;0.00;;;;;;;;;;5029751;28;20113;-67
2021/12/04 08:58:02;;;;;;;0.00;0.00;;;;;;;;;;5011912;28;20029;-67
2021/12/04 09:00:33;;;;;;;0.17;0.17;;;;;;;;;;5030059;28;20103;-67
2021/12/04 09:03:03;;;;;;;0.00;0.00;;;;;;;;;;5029052;28;20040;-66
2021/12/04 09:05:29;;;;;;;0.00;0.00;;;;;;;;;;4998410;28;20045;-66
2021/12/04 09:07:55;;;;;;;0.00;0.00;;;;;;;;;;5046452;28;20032;-67
2021/12/04 09:10:22;;;;;;;0.00;0.00;;;;;;;;;;5043890;28;20037;-67
2021/12/04 09:12:49;;;;;;;0.00;0.00;;;;;;;;;;5030869;28;20036;-67
2021/12/04 09:15:16;;;;;;;0.00;0.00;;;;;;;;;;5028380;28;20203;-67
2021/12/04 09:17:42;;;;;;;0.00;0.00;;;;;;;;;;5029136;28;20029;-67
2021/12/04 09:20:08;;;;;;;0.00;0.00;;;;;;;;;;5027650;28;20431;-67
2021/12/04 09:22:37;;;;;;;0.30;0.30;;;;;;;;;;5029983;28;20033;-67
2021/12/04 09:25:05;;;;;;;0.00;0.00;;;;;;;;;;5026677;28;20032;-67
2021/12/04 10:13:21;;;;;;;0.00;0.00;;;;;;;;;;5026973;28;20557;-67
2021/12/04 10:18:53;;;;;;;0.00;0.00;;;;;;;;;;5027141;28;20091;-66
2021/12/04 10:35:10;;;;;;;0.00;0.00;;;;;;;;;;5026626;28;20120;-67
2021/12/04 10:37:44;;;;;;;0.00;0.00;;;;;;;;;;5027040;28;20033;-66
2021/12/04 10:40:10;;;;;;;0.00;0.00;;;;;;;;;;5026921;28;20052;-65
2021/12/04 10:42:51;;;;;;;0.00;0.00;;;;;;;;;;5031574;28;20026;-65
2021/12/04 10:45:17;;;;;;;0.00;0.00;;;;;;;;;;5026065;28;20627;-65
2021/12/04 10:47:50;;;;;;;0.00;0.00;;;;;;;;;;5026332;28;20468;-65
2021/12/04 10:52:51;;;;;;;0.00;0.00;;;;;;;;;;5025346;28;20041;-65
2021/12/04 10:55:23;;;;;;;0.00;0.00;;;;;;;;;;5025678;28;20026;-65
2021/12/04 11:01:15;;;;;;;0.00;0.00;;;;;;;;;;5027482;28;20029;-66
2021/12/04 11:28:30;;;;;;;0.00;0.00;;;;;;;;;;5023750;28;20042;-65
2021/12/04 11:44:03;;;;;;;0.00;0.00;;;;;;;;;;5024619;28;20034;-67
2021/12/04 11:46:42;;;;;;;0.00;0.00;;;;;;;;;;5007019;28;20033;-67
2021/12/04 11:49:12;;;;;;;10.07;9.65;;;;;;;;;;5026417;28;20026;-66
2021/12/04 11:51:54;;;;;;;0.00;0.00;;;;;;;;;;5027539;28;20033;-67
2021/12/04 11:54:21;;;;;;;0.00;0.00;;;;;;;;;;5027355;28;20034;-68
2021/12/04 11:56:57;;;;;;;0.00;0.00;;;;;;;;;;5026104;28;20036;-68
2021/12/04 11:59:31;;;;;;;0.00;0.00;;;;;;;;;;5025094;28;20378;-68
2021/12/04 12:02:01;;;;;;;0.00;0.00;;;;;;;;;;5041664;28;20417;-68
2021/12/04 12:04:33;;;;;;;0.00;0.00;;;;;;;;;;5023392;28;20244;-68
2021/12/04 12:07:09;;;;;;;0.00;0.00;;;;;;;;;;5028073;28;20033;-68
2021/12/04 12:09:36;;;;;;;0.00;0.00;;;;;;;;;;5029713;28;20065;-68
2021/12/04 12:12:03;;;;;;;0.00;0.00;;;;;;;;;;5029373;28;20116;-68
2021/12/04 12:14:56;;;;;;;0.00;0.00;;;;;;;;;;5027248;28;20033;-68
2021/12/04 12:17:37;;;;;;;0.00;0.00;;;;;;;;;;5031916;28;20065;-68
2021/12/04 12:20:08;;;;;;;0.00;0.00;;;;;;;;;;5027750;28;20498;-68
2021/12/04 12:25:20;;;;;;;0.00;0.00;;;;;;;;;;5033373;28;20092;-68
2021/12/04 12:36:02;;;;;;;0.00;0.00;;;;;;;;;;5027193;28;20037;-67
2021/12/04 12:38:31;;;;;;;0.00;0.00;;;;;;;;;;5029869;28;20095;-67
2021/12/04 12:41:07;;;;;;;0.00;0.00;;;;;;;;;;5035408;28;20045;-68
2021/12/04 12:43:36;;;;;;;0.00;0.00;;;;;;;;;;5038237;28;20025;-67
2021/12/04 12:46:02;;;;;;;;;;;;;;;;;;5036604;28;20044;-68
2021/12/04 12:48:28;;;;;;;0.00;0.00;;;;;;;;;;5036486;28;19912;-68
2021/12/04 12:51:05;;;;;;;0.00;0.00;;;;;;;;;;5033535;28;20089;-67
2021/12/04 12:53:39;;;;;;;0.00;0.00;;;;;;;;;;5033840;28;20040;-68
2021/12/04 12:56:10;;;;;;;0.10;0.10;;;;;;;;;;5037771;28;20481;-68
2021/12/04 12:58:54;;;;;;;0.00;0.00;;;;;;;;;;5020981;28;20033;-68
2021/12/04 13:12:46;;;;;;;0.00;0.00;;;;;;;;;;5033726;28;20053;-67
2021/12/04 13:15:12;;;;;;;0.00;0.00;;;;;;;;;;5029380;28;20049;-67
2021/12/04 13:17:40;;;;;;;0.00;0.00;;;;;;;;;;5029972;28;20041;-68
2021/12/04 13:20:06;;;;;;;0.00;0.00;;;;;;;;;;5031877;28;20114;-67
2021/12/04 13:22:34;;;;;;;0.00;0.00;;;;;;;;;;5009806;28;20037;-67
2021/12/04 13:25:03;;;;;;;0.00;0.00;;;;;;;;;;5035541;28;20017;-67
2021/12/04 13:29:57;;;;;;;0.00;0.00;;;;;;;;;;5034656;28;20036;-68
2021/12/04 13:32:35;;;;;;;0.00;0.00;;;;;;;;;;5032813;28;20104;-68
2021/12/04 13:35:07;;;;;;;0.00;0.00;;;;;;;;;;5011898;28;20092;-68
2021/12/04 13:37:33;;;;;;;0.00;0.00;;;;;;;;;;5031798;28;20083;-68
2021/12/04 13:40:05;;;;;;;0.00;0.00;;;;;;;;;;5026918;28;20042;-68
2021/12/04 13:42:32;;;;;;;0.00;0.00;;;;;;;;;;5031568;28;20025;-68
2021/12/04 13:44:59;;;;;;;0.00;0.00;;;;;;;;;;5029817;28;20364;-68
2021/12/04 13:47:25;;;;;;;0.00;0.00;;;;;;;;;;5028496;28;20029;-67
2021/12/04 13:49:55;;;;;;;0.00;0.00;;;;;;;;;;5032856;28;20049;-67
2021/12/04 13:52:21;;;;;;;0.00;0.00;;;;;;;;;;5030814;28;20063;-67
2021/12/04 13:54:52;;;;;;;0.00;0.00;;;;;;;;;;5030771;28;20033;-68
2021/12/04 13:57:19;;;;;;;0.00;0.00;;;;;;;;;;5030340;28;20119;-68
2021/12/04 13:59:45;;;;;;;0.00;0.00;;;;;;;;;;5032618;28;20033;-68
2021/12/04 14:02:24;;;;;;;0.00;0.00;;;;;;;;;;5028120;28;20017;-68
2021/12/04 14:04:59;;;;;;;0.00;0.00;;;;;;;;;;5031292;28;20029;-67
2021/12/04 14:07:26;;;;;;;0.00;0.00;;;;;;;;;;5031191;28;20036;-67
2021/12/04 14:09:52;;;;;;;0.00;0.00;;;;;;;;;;5031541;28;20682;-67
2021/12/04 14:12:18;;;;;;;0.00;0.00;;;;;;;;;;5031553;28;20039;-66
2021/12/04 14:14:44;;;;;;;0.00;0.00;;;;;;;;;;5033399;28;20056;-67
2021/12/04 14:17:12;;;;;;;0.00;0.00;;;;;;;;;;5034224;28;20033;-67
2021/12/04 14:19:38;;;;;;;94.13;31.48;;;;;;;;;;5033886;28;20057;-57
2021/12/04 14:22:11;;;;;;;0.05;0.05;;;;;;;;;;5031981;28;20075;-54
2021/12/04 14:24:45;;;;;;;34.22;30.90;;;;;;;;;;5029232;28;20021;-64
2021/12/04 14:27:12;;;;;;;66.28;27.85;;;;;;;;;;5032494;28;20371;-64
2021/12/04 14:29:43;;;;;;;0.00;0.00;;;;;;;;;;5031729;28;20112;-64
2021/12/04 14:32:10;;;;;;;3.80;2.42;;;;;;;;;;5035299;28;20452;-63
2021/12/04 14:34:36;;;;;;;0.40;0.40;;;;;;;;;;5033981;28;20454;-64
2021/12/04 14:37:12;;;;;;;0.00;0.00;;;;;;;;;;5031607;28;20477;-64
2021/12/04 14:39:48;;;;;;;0.30;0.30;;;;;;;;;;5023743;28;20045;-64
2021/12/04 14:42:18;;;;;;;0.00;0.00;;;;;;;;;;5036371;28;20097;-63
2021/12/04 14:44:50;;;;;;;1.60;1.23;;;;;;;;;;5035200;28;20052;-63
2021/12/04 14:47:17;;;;;;;0.00;0.00;;;;;;;;;;5033850;28;20029;-64
2021/12/04 14:49:44;;;;;;;1.27;1.23;;;;;;;;;;5031068;28;20385;-64
2021/12/04 14:52:17;;;;;;;5.93;5.40;;;;;;;;;;5034545;28;20029;-64
2021/12/04 14:54:43;;;;;;;4.78;4.35;;;;;;;;;;5036772;28;20037;-64
2021/12/04 14:57:13;;;;;;;2.58;2.47;;;;;;;;;;5038311;28;20552;-64
2021/12/04 14:59:39;;;;;;;0.00;0.00;;;;;;;;;;5036854;28;20091;-64
2021/12/04 15:02:20;;;;;;;0.00;0.00;;;;;;;;;;5031372;28;20045;-64
2021/12/04 15:04:46;;;;;;;0.00;0.00;;;;;;;;;;5024848;28;20499;-64
2021/12/04 15:07:22;;;;;;;0.20;0.20;;;;;;;;;;5032762;28;20061;-64
2021/12/04 15:09:48;;;;;;;0.00;0.00;;;;;;;;;;5023652;28;20033;-64
2021/12/04 15:12:25;;;;;;;0.05;0.05;;;;;;;;;;5033514;28;20454;-64
2021/12/04 15:14:55;;;;;;;0.00;0.00;;;;;;;;;;5034932;28;20037;-64
2021/12/04 15:17:21;;;;;;;;;;;;;;;;;;5033628;28;20346;-64
2021/12/04 15:19:47;;;;;;;0.00;0.00;;;;;;;;;;5031291;28;19923;-64
2021/12/04 15:22:19;;;;;;;0.00;0.00;;;;;;;;;;5030611;28;20049;-64
2021/12/04 15:24:45;;;;;;;0.00;0.00;;;;;;;;;;5025835;28;20036;-64
2021/12/04 15:27:18;;;;;;;0.47;0.47;;;;;;;;;;5030922;28;20026;-64
2021/12/04 15:29:45;;;;;;;7.47;6.72;;;;;;;;;;5032195;28;20029;-65
2021/12/04 15:32:13;;;;;;;0.00;0.00;;;;;;;;;;5029313;28;20135;-64
2021/12/04 15:34:46;;;;;;;0.15;0.15;;;;;;;;;;5040361;28;20049;-64
2021/12/04 15:37:13;;;;;;;0.00;0.00;;;;;;;;;;5031825;28;20389;-65
2021/12/04 15:39:44;;;;;;;0.00;0.00;;;;;;;;;;5027983;28;20050;-64
2021/12/04 15:50:11;;;;;;;0.00;0.00;;;;;;;;;;5035815;28;20481;-63
2021/12/04 15:55:39;;;;;;;0.35;0.35;;;;;;;;;;5024699;28;20546;-65
2021/12/04 15:58:07;;;;;;;0.00;0.00;;;;;;;;;;5033300;28;20429;-65
2021/12/04 16:00:35;;;;;;;0.00;0.00;;;;;;;;;;5027469;28;20021;-65
2021/12/04 16:03:02;;;;;;;0.00;0.00;;;;;;;;;;5033623;28;20028;-65
2021/12/04 16:05:31;;;;;;;0.00;0.00;;;;;;;;;;5029326;28;20024;-65
2021/12/04 16:08:07;;;;;;;0.00;0.00;;;;;;;;;;5032407;28;20025;-65
